createdAt,value
2016-09-20T00:00:09.166Z,0
2016-09-20T00:01:09.489Z,0
2016-09-20T00:02:09.451Z,0
2016-09-20T00:03:09.759Z,0
2016-09-20T00:04:08.477Z,0
2016-09-20T00:05:09.085Z,0
2016-09-20T00:06:09.456Z,0
2016-09-20T00:07:09.746Z,0
2016-09-20T00:08:09.439Z,0
2016-09-20T00:09:09.039Z,0
2016-09-20T00:10:09.389Z,0
2016-09-20T00:11:08.988Z,0
2016-09-20T00:12:09.012Z,0
2016-09-20T00:13:09.300Z,0
2016-09-20T00:14:08.957Z,0
2016-09-20T00:15:09.584Z,0
2016-09-20T00:16:09.334Z,0
2016-09-20T00:17:08.593Z,0
2016-09-20T00:18:09.005Z,0
2016-09-20T00:19:08.886Z,0
2016-09-20T00:20:09.195Z,0
2016-09-20T00:21:08.886Z,0
2016-09-20T00:22:09.487Z,0
2016-09-20T00:23:09.500Z,0
2016-09-20T00:24:09.656Z,0
2016-09-20T00:25:08.854Z,0
2016-09-20T00:26:09.180Z,0
2016-09-20T00:27:08.825Z,0
2016-09-20T00:28:09.397Z,0
2016-09-20T00:29:09.399Z,0
2016-09-20T00:30:09.159Z,0
2016-09-20T00:31:09.026Z,0
2016-09-20T00:32:09.017Z,0
2016-09-20T00:33:08.477Z,0
2016-09-20T00:34:09.101Z,0
2016-09-20T00:35:08.967Z,0
2016-09-20T00:36:09.272Z,0
2016-09-20T00:37:08.956Z,0
2016-09-20T00:38:09.269Z,0
2016-09-20T00:39:08.701Z,0
2016-09-20T00:40:08.906Z,0
2016-09-20T00:41:08.576Z,0
2016-09-20T00:42:08.878Z,0
2016-09-20T00:43:08.939Z,0
2016-09-20T00:44:08.909Z,0
2016-09-20T00:45:08.887Z,0
2016-09-20T00:46:08.846Z,0
2016-09-20T00:47:08.476Z,0
2016-09-20T00:48:08.909Z,0
2016-09-20T00:49:08.458Z,0
2016-09-20T00:50:08.806Z,0
2016-09-20T00:51:09.050Z,0
2016-09-20T00:52:08.482Z,0
2016-09-20T00:53:08.060Z,0
2016-09-20T00:54:08.080Z,0
2016-09-20T00:55:08.690Z,0
2016-09-20T00:56:08.708Z,0
2016-09-20T00:57:08.717Z,0
2016-09-20T00:58:08.749Z,0
2016-09-20T00:59:08.643Z,0
2016-09-20T01:00:08.647Z,0
2016-09-20T01:01:08.276Z,0
2016-09-20T01:02:08.977Z,0
2016-09-20T01:03:08.244Z,0
2016-09-20T01:04:08.609Z,0
2016-09-20T01:05:08.597Z,0
2016-09-20T01:06:07.548Z,0
2016-09-20T01:07:08.560Z,0
2016-09-20T01:08:08.177Z,0
2016-09-20T01:09:08.896Z,0
2016-09-20T01:10:08.876Z,0
2016-09-20T01:11:08.460Z,0
2016-09-20T01:12:08.514Z,0
2016-09-20T01:13:08.112Z,0
2016-09-20T01:14:08.454Z,0
2016-09-20T01:15:08.797Z,0
2016-09-20T01:16:08.057Z,0
2016-09-20T01:17:08.054Z,0
2016-09-20T01:18:08.737Z,0
2016-09-20T01:19:08.414Z,0
2016-09-20T01:20:08.695Z,0
2016-09-20T01:21:08.646Z,0
2016-09-20T01:22:08.307Z,0
2016-09-20T01:23:07.963Z,0
2016-09-20T01:24:08.636Z,0
2016-09-20T01:25:08.579Z,0
2016-09-20T01:26:07.916Z,0
2016-09-20T01:27:08.253Z,0
2016-09-20T01:28:08.580Z,0
2016-09-20T01:29:07.875Z,0
2016-09-20T01:30:08.604Z,0
2016-09-20T01:31:08.167Z,0
2016-09-20T01:32:08.167Z,0
2016-09-20T01:33:08.457Z,0
2016-09-20T01:34:08.519Z,0
2016-09-20T01:35:08.437Z,0
2016-09-20T01:36:08.426Z,0
2016-09-20T01:37:08.074Z,0
2016-09-20T01:38:08.078Z,0
2016-09-20T01:39:08.048Z,0
2016-09-20T01:40:07.776Z,0
2016-09-20T01:41:08.064Z,0
2016-09-20T01:42:08.410Z,0
2016-09-20T01:43:07.993Z,0
2016-09-20T01:44:07.969Z,0
2016-09-20T01:45:08.275Z,0
2016-09-20T01:46:07.314Z,0
2016-09-20T01:47:08.247Z,0
2016-09-20T01:48:08.016Z,0
2016-09-20T01:49:08.227Z,0
2016-09-20T01:50:07.636Z,0
2016-09-20T01:51:08.252Z,0
2016-09-20T01:52:07.625Z,0
2016-09-20T01:53:07.837Z,0
2016-09-20T01:54:08.156Z,0
2016-09-20T01:55:07.833Z,0
2016-09-20T01:56:07.805Z,0
2016-09-20T01:57:08.165Z,0
2016-09-20T01:58:07.445Z,0
2016-09-20T01:59:07.750Z,0
2016-09-20T02:00:07.786Z,0
2016-09-20T02:01:08.326Z,0
2016-09-20T02:02:07.096Z,0
2016-09-20T02:03:07.387Z,0
2016-09-20T02:04:07.415Z,0
2016-09-20T02:05:07.984Z,0
2016-09-20T02:06:07.740Z,0
2016-09-20T02:07:07.648Z,0
2016-09-20T02:08:07.310Z,0
2016-09-20T02:09:07.628Z,0
2016-09-20T02:10:07.276Z,0
2016-09-20T02:11:07.885Z,0
2016-09-20T02:12:07.584Z,0
2016-09-20T02:13:06.905Z,0
2016-09-20T02:14:07.866Z,0
2016-09-20T02:15:07.197Z,0
2016-09-20T02:16:07.829Z,0
2016-09-20T02:17:07.506Z,0
2016-09-20T02:18:07.795Z,0
2016-09-20T02:19:07.149Z,0
2016-09-20T02:20:07.760Z,0
2016-09-20T02:21:07.119Z,0
2016-09-20T02:22:07.408Z,0
2016-09-20T02:23:07.087Z,0
2016-09-20T02:24:07.068Z,0
2016-09-20T02:25:07.707Z,0
2016-09-20T02:26:07.356Z,0
2016-09-20T02:27:07.008Z,0
2016-09-20T02:28:07.327Z,0
2016-09-20T02:29:06.979Z,0
2016-09-20T02:30:06.989Z,0
2016-09-20T02:31:07.289Z,0
2016-09-20T02:32:07.279Z,0
2016-09-20T02:33:07.266Z,0
2016-09-20T02:34:07.548Z,0
2016-09-20T02:35:07.221Z,0
2016-09-20T02:36:06.906Z,0
2016-09-20T02:37:07.207Z,0
2016-09-20T02:38:07.208Z,0
2016-09-20T02:39:07.235Z,0
2016-09-20T02:40:07.270Z,0
2016-09-20T02:41:07.148Z,0
2016-09-20T02:42:07.445Z,0
2016-09-20T02:43:06.147Z,0
2016-09-20T02:44:07.099Z,0
2016-09-20T02:45:07.089Z,0
2016-09-20T02:46:06.752Z,0
2016-09-20T02:47:07.396Z,0
2016-09-20T02:48:06.756Z,0
2016-09-20T02:49:07.036Z,0
2016-09-20T02:50:06.681Z,0
2016-09-20T02:51:06.356Z,0
2016-09-20T02:52:06.987Z,0
2016-09-20T02:53:07.277Z,0
2016-09-20T02:54:06.665Z,0
2016-09-20T02:55:06.639Z,0
2016-09-20T02:56:06.652Z,0
2016-09-20T02:57:06.577Z,0
2016-09-20T02:58:06.983Z,0
2016-09-20T02:59:06.996Z,0
2016-09-20T03:00:06.549Z,0
2016-09-20T03:01:07.179Z,0
2016-09-20T03:02:06.537Z,0
2016-09-20T03:03:06.175Z,0
2016-09-20T03:04:07.119Z,0
2016-09-20T03:05:06.827Z,0
2016-09-20T03:06:06.783Z,0
2016-09-20T03:07:06.796Z,0
2016-09-20T03:08:07.085Z,0
2016-09-20T03:09:07.106Z,0
2016-09-20T03:10:06.396Z,0
2016-09-20T03:11:06.700Z,0
2016-09-20T03:12:07.095Z,0
2016-09-20T03:13:06.359Z,0
2016-09-20T03:14:07.077Z,0
2016-09-20T03:15:06.658Z,0
2016-09-20T03:16:06.442Z,0
2016-09-20T03:17:06.997Z,0
2016-09-20T03:18:06.608Z,0
2016-09-20T03:19:06.039Z,0
2016-09-20T03:20:06.259Z,0
2016-09-20T03:21:06.547Z,0
2016-09-20T03:22:06.959Z,0
2016-09-20T03:23:06.516Z,0
2016-09-20T03:24:06.565Z,0
2016-09-20T03:25:06.169Z,0
2016-09-20T03:26:06.867Z,0
2016-09-20T03:27:06.447Z,0
2016-09-20T03:28:06.300Z,0
2016-09-20T03:29:06.437Z,0
2016-09-20T03:30:06.850Z,0
2016-09-20T03:31:06.739Z,0
2016-09-20T03:32:06.427Z,0
2016-09-20T03:33:06.389Z,0
2016-09-20T03:34:05.728Z,0
2016-09-20T03:35:06.015Z,0
2016-09-20T03:36:06.489Z,0
2016-09-20T03:37:06.709Z,0
2016-09-20T03:38:06.311Z,0
2016-09-20T03:39:05.695Z,0
2016-09-20T03:40:06.285Z,0
2016-09-20T03:41:06.635Z,0
2016-09-20T03:42:06.008Z,0
2016-09-20T03:43:06.224Z,0
2016-09-20T03:44:06.217Z,0
2016-09-20T03:45:05.966Z,0
2016-09-20T03:46:06.205Z,0
2016-09-20T03:47:06.168Z,0
2016-09-20T03:48:06.483Z,0
2016-09-20T03:49:06.236Z,0
2016-09-20T03:50:06.484Z,0
2016-09-20T03:51:06.489Z,0
2016-09-20T03:52:06.104Z,0
2016-09-20T03:53:05.431Z,0
2016-09-20T03:54:05.753Z,0
2016-09-20T03:55:06.354Z,0
2016-09-20T03:56:06.365Z,0
2016-09-20T03:57:06.013Z,0
2016-09-20T03:58:06.043Z,0
2016-09-20T03:59:06.037Z,0
2016-09-20T04:00:05.679Z,0
2016-09-20T04:01:05.958Z,0
2016-09-20T04:02:06.277Z,0
2016-09-20T04:03:06.247Z,0
2016-09-20T04:04:05.936Z,0
2016-09-20T04:05:05.574Z,0
2016-09-20T04:06:05.903Z,0
2016-09-20T04:07:05.199Z,0
2016-09-20T04:08:06.166Z,0
2016-09-20T04:09:05.836Z,0
2016-09-20T04:10:04.897Z,0
2016-09-20T04:11:05.784Z,0
2016-09-20T04:12:05.778Z,0
2016-09-20T04:13:05.455Z,0
2016-09-20T04:14:06.077Z,0
2016-09-20T04:15:06.073Z,0
2016-09-20T04:16:05.737Z,0
2016-09-20T04:17:05.714Z,0
2016-09-20T04:18:05.383Z,0
2016-09-20T04:19:05.362Z,0
2016-09-20T04:20:06.002Z,0
2016-09-20T04:21:05.656Z,0
2016-09-20T04:22:05.957Z,0
2016-09-20T04:23:05.052Z,0
2016-09-20T04:24:05.596Z,0
2016-09-20T04:25:05.627Z,0
2016-09-20T04:26:05.576Z,0
2016-09-20T04:27:05.244Z,0
2016-09-20T04:28:05.562Z,0
2016-09-20T04:29:05.551Z,0
2016-09-20T04:30:05.533Z,0
2016-09-20T04:31:05.503Z,0
2016-09-20T04:32:05.920Z,0
2016-09-20T04:33:04.843Z,0
2016-09-20T04:34:05.216Z,0
2016-09-20T04:35:05.494Z,0
2016-09-20T04:36:05.752Z,0
2016-09-20T04:37:05.423Z,0
2016-09-20T04:38:05.383Z,0
2016-09-20T04:39:05.383Z,0
2016-09-20T04:40:05.369Z,0
2016-09-20T04:41:05.401Z,0
2016-09-20T04:42:05.397Z,0
2016-09-20T04:43:04.673Z,0
2016-09-20T04:44:05.663Z,0
2016-09-20T04:45:05.635Z,0
2016-09-20T04:46:04.688Z,0
2016-09-20T04:47:05.261Z,0
2016-09-20T04:48:05.256Z,0
2016-09-20T04:50:05.235Z,0
2016-09-20T04:51:05.524Z,0
2016-09-20T04:52:04.882Z,0
2016-09-20T04:53:05.486Z,0
2016-09-20T04:54:04.627Z,0
2016-09-20T04:55:05.561Z,0
2016-09-20T04:56:05.444Z,0
2016-09-20T04:57:05.535Z,0
2016-09-20T04:58:05.536Z,0
2016-09-20T04:59:05.165Z,0
2016-09-20T05:00:05.064Z,0
2016-09-20T05:01:04.424Z,0
2016-09-20T05:02:05.042Z,0
2016-09-20T05:03:05.105Z,0
2016-09-20T05:04:05.008Z,0
2016-09-20T05:05:05.409Z,0
2016-09-20T05:06:04.992Z,0
2016-09-20T05:07:04.719Z,0
2016-09-20T05:08:04.755Z,0
2016-09-20T05:09:05.303Z,0
2016-09-20T05:10:04.923Z,0
2016-09-20T05:11:05.235Z,0
2016-09-20T05:12:05.256Z,0
2016-09-20T05:13:04.561Z,0
2016-09-20T05:14:05.281Z,0
2016-09-20T05:15:05.179Z,0
2016-09-20T05:16:04.833Z,0
2016-09-20T05:17:04.506Z,0
2016-09-20T05:18:04.805Z,0
2016-09-20T05:19:04.464Z,0
2016-09-20T05:20:04.455Z,0
2016-09-20T05:21:04.747Z,0
2016-09-20T05:22:04.452Z,0
2016-09-20T05:23:04.397Z,0
2016-09-20T05:24:04.419Z,0
2016-09-20T05:25:04.398Z,0
2016-09-20T05:26:04.688Z,0
2016-09-20T05:27:04.663Z,0
2016-09-20T05:28:04.334Z,0
2016-09-20T05:29:04.967Z,0
2016-09-20T05:30:05.063Z,0
2016-09-20T05:31:04.298Z,0
2016-09-20T05:32:04.583Z,0
2016-09-20T05:33:03.653Z,0
2016-09-20T05:34:04.235Z,0
2016-09-20T05:35:04.555Z,0
2016-09-20T05:36:04.215Z,0
2016-09-20T05:37:04.565Z,0
2016-09-20T05:38:04.836Z,0
2016-09-20T05:39:04.174Z,0
2016-09-20T05:40:04.180Z,0
2016-09-20T05:41:04.786Z,0
2016-09-20T05:42:03.800Z,5
2016-09-20T05:43:04.448Z,5
2016-09-20T05:44:03.768Z,5
2016-09-20T05:45:04.415Z,5
2016-09-20T05:46:04.755Z,5
2016-09-20T05:47:03.742Z,5
2016-09-20T05:48:04.039Z,5
2016-09-20T05:49:04.334Z,5
2016-09-20T05:50:04.325Z,5
2016-09-20T05:51:04.318Z,5
2016-09-20T05:52:03.998Z,5
2016-09-20T05:53:03.639Z,5
2016-09-20T05:54:03.998Z,5
2016-09-20T05:55:03.978Z,5
2016-09-20T05:56:03.605Z,5
2016-09-20T05:57:04.266Z,5
2016-09-20T05:58:03.563Z,5
2016-09-20T05:59:03.873Z,5
2016-09-20T06:00:03.525Z,10
2016-09-20T06:01:03.523Z,10
2016-09-20T06:02:04.137Z,10
2016-09-20T06:03:03.811Z,10
2016-09-20T06:04:04.133Z,10
2016-09-20T06:05:04.103Z,10
2016-09-20T06:06:04.429Z,10
2016-09-20T06:07:04.380Z,10
2016-09-20T06:08:04.059Z,10
2016-09-20T06:09:04.035Z,10
2016-09-20T06:10:04.346Z,10
2016-09-20T06:11:03.739Z,10
2016-09-20T06:12:03.675Z,10
2016-09-20T06:13:04.316Z,10
2016-09-20T06:14:03.644Z,15
2016-09-20T06:15:03.631Z,15
2016-09-20T06:16:03.603Z,15
2016-09-20T06:17:03.605Z,15
2016-09-20T06:18:03.919Z,15
2016-09-20T06:19:03.297Z,15
2016-09-20T06:20:03.878Z,15
2016-09-20T06:21:03.545Z,15
2016-09-20T06:22:03.839Z,15
2016-09-20T06:23:03.535Z,15
2016-09-20T06:24:03.486Z,15
2016-09-20T06:25:03.481Z,15
2016-09-20T06:26:03.152Z,15
2016-09-20T06:27:03.464Z,15
2016-09-20T06:28:03.428Z,15
2016-09-20T06:29:03.418Z,15
2016-09-20T06:30:03.477Z,15
2016-09-20T06:31:04.134Z,15
2016-09-20T06:32:03.071Z,15
2016-09-20T06:33:03.365Z,15
2016-09-20T06:34:03.994Z,15
2016-09-20T06:35:03.008Z,15
2016-09-20T06:36:03.718Z,15
2016-09-20T06:37:03.316Z,15
2016-09-20T06:38:02.974Z,15
2016-09-20T06:39:03.272Z,15
2016-09-20T06:40:03.566Z,15
2016-09-20T06:41:03.236Z,15
2016-09-20T06:42:03.642Z,15
2016-09-20T06:43:02.884Z,15
2016-09-20T06:44:03.656Z,15
2016-09-20T06:45:03.196Z,15
2016-09-20T06:46:03.487Z,15
2016-09-20T06:47:02.514Z,15
2016-09-20T06:48:03.477Z,15
2016-09-20T06:49:03.775Z,15
2016-09-20T06:50:03.075Z,15
2016-09-20T06:51:03.417Z,15
2016-09-20T06:52:03.818Z,15
2016-09-20T06:53:03.138Z,15
2016-09-20T06:54:03.834Z,15
2016-09-20T06:55:03.099Z,15
2016-09-20T06:56:03.344Z,20
2016-09-20T06:57:03.701Z,20
2016-09-20T06:58:03.321Z,20
2016-09-20T06:59:02.985Z,20
2016-09-20T07:00:02.701Z,20
2016-09-20T07:01:03.628Z,15
2016-09-20T07:02:03.576Z,15
2016-09-20T07:03:02.886Z,20
2016-09-20T07:04:02.597Z,20
2016-09-20T07:05:02.941Z,20
2016-09-20T07:06:03.180Z,20
2016-09-20T07:07:03.599Z,20
2016-09-20T07:08:03.555Z,20
2016-09-20T07:09:03.167Z,20
2016-09-20T07:10:03.509Z,20
2016-09-20T07:11:03.436Z,20
2016-09-20T07:12:02.197Z,20
2016-09-20T07:13:03.101Z,20
2016-09-20T07:14:03.077Z,20
2016-09-20T07:15:03.435Z,20
2016-09-20T07:16:03.418Z,20
2016-09-20T07:17:02.705Z,20
2016-09-20T07:18:02.847Z,25
2016-09-20T07:19:02.437Z,25
2016-09-20T07:20:02.724Z,25
2016-09-20T07:21:02.653Z,25
2016-09-20T07:22:02.617Z,25
2016-09-20T07:23:03.337Z,25
2016-09-20T07:24:02.637Z,30
2016-09-20T07:25:02.908Z,30
2016-09-20T07:26:02.902Z,30
2016-09-20T07:27:02.556Z,30
2016-09-20T07:28:02.860Z,30
2016-09-20T07:29:02.858Z,30
2016-09-20T07:30:02.523Z,30
2016-09-20T07:31:02.604Z,30
2016-09-20T07:32:02.496Z,30
2016-09-20T07:33:02.158Z,30
2016-09-20T07:34:02.797Z,30
2016-09-20T07:35:03.084Z,30
2016-09-20T07:36:03.061Z,30
2016-09-20T07:37:02.750Z,30
2016-09-20T07:38:02.421Z,35
2016-09-20T07:39:02.387Z,35
2016-09-20T07:40:02.692Z,35
2016-09-20T07:41:02.034Z,35
2016-09-20T07:42:02.985Z,35
2016-09-20T07:43:02.646Z,35
2016-09-20T07:44:01.991Z,35
2016-09-20T07:45:02.966Z,35
2016-09-20T07:46:02.290Z,35
2016-09-20T07:47:02.258Z,35
2016-09-20T07:48:02.574Z,35
2016-09-20T07:49:02.568Z,35
2016-09-20T07:50:02.855Z,35
2016-09-20T07:51:02.856Z,35
2016-09-20T07:52:02.838Z,35
2016-09-20T07:53:02.548Z,40
2016-09-20T07:54:02.540Z,40
2016-09-20T07:55:02.467Z,40
2016-09-20T07:56:02.456Z,40
2016-09-20T07:57:02.443Z,40
2016-09-20T07:58:02.106Z,40
2016-09-20T07:59:02.724Z,40
2016-09-20T08:00:02.707Z,40
2016-09-20T08:01:01.738Z,40
2016-09-20T08:02:02.380Z,40
2016-09-20T08:03:02.650Z,40
2016-09-20T08:04:02.015Z,40
2016-09-20T08:05:02.639Z,40
2016-09-20T08:06:02.643Z,40
2016-09-20T08:07:02.301Z,40
2016-09-20T08:08:02.269Z,40
2016-09-20T08:09:01.949Z,40
2016-09-20T08:10:01.936Z,40
2016-09-20T08:11:01.946Z,40
2016-09-20T08:12:02.205Z,40
2016-09-20T08:13:01.876Z,40
2016-09-20T08:14:02.524Z,40
2016-09-20T08:15:01.869Z,40
2016-09-20T08:16:02.488Z,40
2016-09-20T08:17:01.835Z,40
2016-09-20T08:18:01.818Z,40
2016-09-20T08:19:02.136Z,45
2016-09-20T08:20:01.499Z,45
2016-09-20T08:21:01.774Z,45
2016-09-20T08:22:02.087Z,45
2016-09-20T08:23:01.425Z,45
2016-09-20T08:24:02.072Z,45
2016-09-20T08:25:01.386Z,50
2016-09-20T08:26:02.110Z,50
2016-09-20T08:27:01.685Z,50
2016-09-20T08:28:01.672Z,50
2016-09-20T08:29:01.988Z,50
2016-09-20T08:30:01.623Z,50
2016-09-20T08:31:01.936Z,50
2016-09-20T08:32:01.960Z,50
2016-09-20T08:33:02.236Z,55
2016-09-20T08:34:02.238Z,55
2016-09-20T08:35:01.906Z,55
2016-09-20T08:36:01.885Z,55
2016-09-20T08:37:02.215Z,55
2016-09-20T08:38:01.976Z,60
2016-09-20T08:39:02.196Z,55
2016-09-20T08:40:01.825Z,55
2016-09-20T08:41:02.182Z,55
2016-09-20T08:42:02.133Z,60
2016-09-20T08:43:01.854Z,60
2016-09-20T08:44:01.104Z,60
2016-09-20T08:45:01.432Z,60
2016-09-20T08:46:01.976Z,60
2016-09-20T08:47:01.463Z,60
2016-09-20T08:48:01.409Z,65
2016-09-20T08:49:01.463Z,65
2016-09-20T08:50:02.098Z,65
2016-09-20T08:51:01.329Z,65
2016-09-20T08:52:01.347Z,65
2016-09-20T08:53:01.656Z,65
2016-09-20T08:54:01.376Z,65
2016-09-20T08:55:01.594Z,65
2016-09-20T08:56:01.249Z,65
2016-09-20T08:57:01.620Z,65
2016-09-20T08:58:01.564Z,65
2016-09-20T08:59:01.637Z,65
2016-09-20T09:00:01.873Z,65
2016-09-20T09:01:01.307Z,70
2016-09-20T09:02:01.498Z,70
2016-09-20T09:03:01.847Z,70
2016-09-20T09:04:00.892Z,70
2016-09-20T09:05:01.839Z,70
2016-09-20T09:06:01.447Z,70
2016-09-20T09:07:01.099Z,70
2016-09-20T09:08:01.407Z,70
2016-09-20T09:09:01.416Z,70
2016-09-20T09:10:01.071Z,70
2016-09-20T09:11:00.957Z,70
2016-09-20T09:12:01.040Z,75
2016-09-20T09:13:01.310Z,75
2016-09-20T09:14:00.830Z,75
2016-09-20T09:15:01.645Z,75
2016-09-20T09:16:01.627Z,80
2016-09-20T09:17:01.606Z,80
2016-09-20T09:18:01.259Z,80
2016-09-20T09:19:01.267Z,85
2016-09-20T09:20:01.239Z,85
2016-09-20T09:21:01.231Z,90
2016-09-20T09:22:00.900Z,90
2016-09-20T09:23:01.556Z,90
2016-09-20T09:24:01.226Z,95
2016-09-20T09:25:00.857Z,95
2016-09-20T09:26:01.158Z,95
2016-09-20T09:27:01.124Z,95
2016-09-20T09:29:01.118Z,100
2016-09-20T09:30:01.111Z,100
2016-09-20T09:31:01.109Z,100
2016-09-20T09:32:00.785Z,105
2016-09-20T09:33:01.146Z,105
2016-09-20T09:34:00.718Z,110
2016-09-20T09:35:01.357Z,110
2016-09-20T09:36:00.793Z,110
2016-09-20T09:37:00.677Z,110
2016-09-20T09:38:00.986Z,115
2016-09-20T09:39:00.996Z,120
2016-09-20T09:40:00.706Z,125
2016-09-20T09:41:01.266Z,125
2016-09-20T09:42:00.935Z,125
2016-09-20T09:43:00.896Z,130
2016-09-20T09:44:00.911Z,130
2016-09-20T09:45:00.611Z,135
2016-09-20T09:46:00.220Z,140
2016-09-20T09:47:00.550Z,145
2016-09-20T09:48:00.520Z,150
2016-09-20T09:49:00.539Z,155
2016-09-20T09:50:01.217Z,155
2016-09-20T09:51:00.810Z,160
2016-09-20T09:52:00.468Z,160
2016-09-20T09:53:00.136Z,160
2016-09-20T09:54:00.854Z,160
2016-09-20T09:55:01.066Z,160
2016-09-20T09:56:00.797Z,160
2016-09-20T09:57:00.114Z,160
2016-09-20T09:58:00.079Z,165
2016-09-20T09:59:00.716Z,160
2016-09-20T10:00:01.127Z,160
2016-09-20T10:01:00.375Z,160
2016-09-20T10:02:00.678Z,160
2016-09-20T10:03:00.666Z,160
2016-09-20T10:04:00.315Z,160
2016-09-20T10:05:00.958Z,165
2016-09-20T10:05:59.983Z,165
2016-09-20T10:07:00.606Z,165
2016-09-20T10:08:00.496Z,165
2016-09-20T10:09:00.279Z,170
2016-09-20T10:09:59.921Z,170
2016-09-20T10:11:00.591Z,170
2016-09-20T10:12:00.539Z,170
2016-09-20T10:13:00.528Z,170
2016-09-20T10:14:00.856Z,170
2016-09-20T10:14:59.852Z,170
2016-09-20T10:16:00.380Z,170
2016-09-20T10:17:00.816Z,170
2016-09-20T10:17:59.812Z,170
2016-09-20T10:19:00.767Z,175
2016-09-20T10:20:00.433Z,180
2016-09-20T10:21:00.425Z,180
2016-09-20T10:22:00.739Z,185
2016-09-20T10:23:00.445Z,190
2016-09-20T10:24:00.113Z,195
2016-09-20T10:25:00.451Z,200
2016-09-20T10:26:00.060Z,200
2016-09-20T10:27:00.369Z,205
2016-09-20T10:28:00.676Z,210
2016-09-20T10:29:00.057Z,220
2016-09-20T10:30:00.309Z,235
2016-09-20T10:30:59.431Z,235
2016-09-20T10:32:00.629Z,230
2016-09-20T10:33:00.260Z,235
2016-09-20T10:34:00.270Z,235
2016-09-20T10:35:00.248Z,245
2016-09-20T10:36:00.576Z,270
2016-09-20T10:37:00.289Z,255
2016-09-20T10:37:59.889Z,265
2016-09-20T10:39:00.237Z,275
2016-09-20T10:40:00.525Z,280
2016-09-20T10:41:00.216Z,300
2016-09-20T10:41:59.829Z,310
2016-09-20T10:43:00.120Z,305
2016-09-20T10:43:59.809Z,300
2016-09-20T10:44:59.474Z,305
2016-09-20T10:46:00.430Z,285
2016-09-20T10:47:00.456Z,280
2016-09-20T10:48:00.417Z,275
2016-09-20T10:48:59.760Z,275
2016-09-20T10:50:00.406Z,275
2016-09-20T10:51:00.175Z,275
2016-09-20T10:52:00.049Z,270
2016-09-20T10:53:00.347Z,265
2016-09-20T10:54:00.350Z,255
2016-09-20T10:54:59.689Z,255
2016-09-20T10:56:00.013Z,250
2016-09-20T10:57:00.313Z,250
2016-09-20T10:58:00.305Z,250
2016-09-20T10:59:00.295Z,255
2016-09-20T11:00:00.276Z,260
2016-09-20T11:00:59.959Z,260
2016-09-20T11:02:00.269Z,260
2016-09-20T11:02:59.624Z,265
2016-09-20T11:03:59.925Z,265
2016-09-20T11:04:59.907Z,280
2016-09-20T11:05:59.583Z,285
2016-09-20T11:06:59.936Z,290
2016-09-20T11:08:00.200Z,295
2016-09-20T11:08:59.872Z,305
2016-09-20T11:10:00.170Z,310
2016-09-20T11:11:00.167Z,315
2016-09-20T11:12:00.157Z,315
2016-09-20T11:12:59.895Z,315
2016-09-20T11:13:59.830Z,310
2016-09-20T11:15:00.161Z,305
2016-09-20T11:16:00.266Z,320
2016-09-20T11:16:59.795Z,305
2016-09-20T11:17:59.459Z,295
2016-09-20T11:19:00.079Z,300
2016-09-20T11:19:59.856Z,310
2016-09-20T11:20:59.437Z,315
2016-09-20T11:21:59.409Z,330
2016-09-20T11:22:59.720Z,335
2016-09-20T11:23:59.435Z,340
2016-09-20T11:24:59.710Z,340
2016-09-20T11:25:59.376Z,345
2016-09-20T11:26:59.677Z,365
2016-09-20T11:27:59.032Z,370
2016-09-20T11:28:59.335Z,370
2016-09-20T11:29:59.657Z,370
2016-09-20T11:30:59.638Z,360
2016-09-20T11:31:59.727Z,355
2016-09-20T11:32:59.681Z,350
2016-09-20T11:33:59.355Z,340
2016-09-20T11:34:59.983Z,335
2016-09-20T11:35:59.635Z,330
2016-09-20T11:36:59.261Z,330
2016-09-20T11:37:59.583Z,330
2016-09-20T11:38:59.879Z,330
2016-09-20T11:39:59.545Z,325
2016-09-20T11:40:59.589Z,320
2016-09-20T11:41:59.209Z,300
2016-09-20T11:42:59.646Z,290
2016-09-20T11:43:59.179Z,285
2016-09-20T11:44:58.910Z,285
2016-09-20T11:45:59.532Z,285
2016-09-20T11:46:59.156Z,280
2016-09-20T11:47:59.787Z,275
2016-09-20T11:48:59.787Z,265
2016-09-20T11:49:59.137Z,260
2016-09-20T11:50:59.127Z,245
2016-09-20T11:51:59.751Z,245
2016-09-20T11:52:59.726Z,240
2016-09-20T11:53:59.413Z,235
2016-09-20T11:54:59.101Z,235
2016-09-20T11:55:59.718Z,230
2016-09-20T11:56:59.398Z,225
2016-09-20T11:57:59.405Z,225
2016-09-20T11:58:59.422Z,220
2016-09-20T11:59:58.840Z,215
2016-09-20T12:00:59.339Z,215
2016-09-20T12:01:58.993Z,210
2016-09-20T12:02:59.367Z,210
2016-09-20T12:04:04.971Z,205
2016-09-20T12:04:59.630Z,205
2016-09-20T12:05:58.960Z,205
2016-09-20T12:06:58.988Z,200
2016-09-20T12:07:58.624Z,195
2016-09-20T12:08:59.265Z,190
2016-09-20T12:09:59.007Z,185
2016-09-20T12:10:59.246Z,175
2016-09-20T12:11:59.547Z,170
2016-09-20T12:12:59.564Z,170
2016-09-20T12:13:59.250Z,170
2016-09-20T12:14:59.179Z,165
2016-09-20T12:15:59.511Z,165
2016-09-20T12:16:59.160Z,165
2016-09-20T12:17:58.840Z,165
2016-09-20T12:18:59.149Z,165
2016-09-20T12:19:58.837Z,165
2016-09-20T12:20:59.469Z,160
2016-09-20T12:21:58.777Z,160
2016-09-20T12:22:58.790Z,165
2016-09-20T12:23:59.085Z,165
2016-09-20T12:24:58.439Z,165
2016-09-20T12:25:59.070Z,165
2016-09-20T12:26:58.420Z,165
2016-09-20T12:27:59.077Z,170
2016-09-20T12:28:59.351Z,170
2016-09-20T12:29:59.038Z,170
2016-09-20T12:30:59.040Z,170
2016-09-20T12:31:58.973Z,170
2016-09-20T12:32:59.027Z,170
2016-09-20T12:33:58.779Z,165
2016-09-20T12:34:58.973Z,165
2016-09-20T12:35:58.316Z,165
2016-09-20T12:36:58.948Z,165
2016-09-20T12:37:58.718Z,165
2016-09-20T12:38:59.536Z,165
2016-09-20T12:39:58.600Z,165
2016-09-20T12:40:58.263Z,165
2016-09-20T12:41:59.207Z,165
2016-09-20T12:42:58.948Z,165
2016-09-20T12:43:59.079Z,165
2016-09-20T12:44:58.949Z,165
2016-09-20T12:45:58.832Z,165
2016-09-20T12:46:58.946Z,170
2016-09-20T12:47:58.956Z,170
2016-09-20T12:48:58.325Z,170
2016-09-20T12:49:58.141Z,170
2016-09-20T12:50:58.149Z,170
2016-09-20T12:51:58.816Z,175
2016-09-20T12:52:58.456Z,175
2016-09-20T12:53:58.426Z,175
2016-09-20T12:54:58.415Z,175
2016-09-20T12:55:58.406Z,175
2016-09-20T12:56:58.726Z,175
2016-09-20T12:57:58.378Z,175
2016-09-20T12:58:58.055Z,175
2016-09-20T12:59:58.376Z,180
2016-09-20T13:00:59.008Z,180
2016-09-20T13:01:58.344Z,185
2016-09-20T13:02:58.967Z,185
2016-09-20T13:03:58.328Z,190
2016-09-20T13:04:58.976Z,190
2016-09-20T13:05:58.602Z,190
2016-09-20T13:06:58.968Z,190
2016-09-20T13:07:58.597Z,190
2016-09-20T13:08:57.957Z,190
2016-09-20T13:09:57.925Z,190
2016-09-20T13:10:58.587Z,190
2016-09-20T13:11:58.559Z,190
2016-09-20T13:12:57.892Z,190
2016-09-20T13:13:58.211Z,185
2016-09-20T13:14:58.624Z,185
2016-09-20T13:15:58.884Z,185
2016-09-20T13:16:58.533Z,185
2016-09-20T13:17:58.494Z,180
2016-09-20T13:18:58.464Z,180
2016-09-20T13:19:58.782Z,180
2016-09-20T13:20:58.439Z,180
2016-09-20T13:21:58.750Z,185
2016-09-20T13:22:58.435Z,185
2016-09-20T13:23:57.818Z,190
2016-09-20T13:24:58.132Z,185
2016-09-20T13:25:58.372Z,190
2016-09-20T13:26:58.073Z,185
2016-09-20T13:27:58.376Z,190
2016-09-20T13:28:58.095Z,205
2016-09-20T13:29:58.028Z,195
2016-09-20T13:30:58.335Z,185
2016-09-20T13:31:58.013Z,180
2016-09-20T13:32:58.628Z,175
2016-09-20T13:33:58.365Z,170
2016-09-20T13:34:58.346Z,170
2016-09-20T13:35:58.604Z,160
2016-09-20T13:36:58.603Z,155
2016-09-20T13:37:58.269Z,150
2016-09-20T13:38:58.288Z,150
2016-09-20T13:39:57.907Z,150
2016-09-20T13:40:58.246Z,150
2016-09-20T13:41:58.357Z,150
2016-09-20T13:42:58.195Z,150
2016-09-20T13:43:57.540Z,145
2016-09-20T13:44:57.856Z,145
2016-09-20T13:45:58.268Z,145
2016-09-20T13:46:57.511Z,140
2016-09-20T13:47:58.457Z,140
2016-09-20T13:48:57.956Z,140
2016-09-20T13:49:58.170Z,140
2016-09-20T13:50:58.448Z,140
2016-09-20T13:51:58.146Z,135
2016-09-20T13:52:58.089Z,135
2016-09-20T13:53:58.088Z,130
2016-09-20T13:54:57.769Z,130
2016-09-20T13:55:58.453Z,130
2016-09-20T13:56:57.713Z,125
2016-09-20T13:57:58.019Z,125
2016-09-20T13:58:58.121Z,130
2016-09-20T13:59:58.028Z,125
2016-09-20T14:00:57.705Z,120
2016-09-20T14:01:58.010Z,125
2016-09-20T14:02:57.425Z,120
2016-09-20T14:03:57.956Z,120
2016-09-20T14:04:57.363Z,115
2016-09-20T14:05:57.655Z,115
2016-09-20T14:06:57.610Z,115
2016-09-20T14:07:57.719Z,115
2016-09-20T14:08:57.702Z,115
2016-09-20T14:09:58.268Z,115
2016-09-20T14:10:57.591Z,115
2016-09-20T14:11:57.873Z,115
2016-09-20T14:12:58.292Z,110
2016-09-20T14:13:58.168Z,110
2016-09-20T14:14:57.845Z,110
2016-09-20T14:15:58.141Z,105
2016-09-20T14:16:57.595Z,105
2016-09-20T14:17:57.817Z,105
2016-09-20T14:18:58.139Z,100